Time;durP1;ratioP1;P1;durP2;ratioP2;P2;SDS_P1;SDS_P2;PMS_P1;PMS_P2;Temp;Humidity;BMP_temperature;BMP_pressure;BME280_temperature;BME280_humidity;BME280_pressure;Samples;Min_cycle;Max_cycle;Signal;HPM_P1;HPM_P2
2021/07/12 00:02:54;;;;;;;8.43;4.32;;;;;;;-140.79;100.00;63287.88;5274045;23;20432;-77
2021/07/12 00:05:20;;;;;;;6.28;4.68;;;;;;;-140.79;100.00;63287.88;4972455;28;20075;-77
2021/07/12 00:07:45;;;;;;;6.07;4.28;;;;;;;-140.79;100.00;63287.88;4975709;28;20022;-77
2021/07/12 00:10:13;;;;;;;8.07;4.50;;;;;;;-140.79;100.00;63287.88;4975865;28;20026;-77
2021/07/12 00:12:38;;;;;;;6.55;4.70;;;;;;;-140.79;100.00;63287.88;4992693;28;20041;-78
2021/07/12 00:15:05;;;;;;;7.38;4.72;;;;;;;-140.79;100.00;63287.88;4991492;28;20026;-77
2021/07/12 00:17:31;;;;;;;6.53;4.70;;;;;;;-140.79;100.00;63287.88;4992140;28;20033;-77
2021/07/12 00:19:56;;;;;;;6.60;4.35;;;;;;;-140.79;100.00;63287.88;4992243;28;20030;-77
2021/07/12 00:22:22;;;;;;;6.20;4.45;;;;;;;-140.79;100.00;63287.88;4975091;28;20026;-77
2021/07/12 00:24:47;;;;;;;7.47;4.43;;;;;;;-140.79;100.00;63287.88;4975798;28;20108;-77
2021/07/12 00:27:13;;;;;;;8.10;4.60;;;;;;;-140.79;100.00;63287.88;4991275;28;20045;-78
2021/07/12 00:29:38;;;;;;;6.30;4.72;;;;;;;-140.79;100.00;63287.88;4992713;28;20476;-77
2021/07/12 00:32:04;;;;;;;6.95;4.65;;;;;;;-140.79;100.00;63287.88;4975204;28;20035;-77
2021/07/12 00:34:30;;;;;;;4.95;4.13;;;;;;;-140.79;100.00;63287.88;4999231;28;20038;-77
2021/07/12 00:36:55;;;;;;;9.38;5.03;;;;;;;-140.79;100.00;63287.88;4993937;28;20034;-77
2021/07/12 00:39:21;;;;;;;5.95;4.40;;;;;;;-140.79;100.00;63287.88;4994469;28;20033;-78
2021/07/12 00:41:46;;;;;;;8.00;4.43;;;;;;;-140.79;100.00;63287.88;4994725;28;20035;-77
2021/07/12 00:44:12;;;;;;;5.32;4.63;;;;;;;-140.79;100.00;63287.88;4994751;28;20034;-77
2021/07/12 00:46:37;;;;;;;7.43;5.15;;;;;;;-140.79;100.00;63287.88;4994253;28;20044;-77
2021/07/12 00:49:02;;;;;;;5.82;4.13;;;;;;;-140.79;100.00;63287.88;4993939;28;20037;-77
2021/07/12 00:51:28;;;;;;;7.20;4.60;;;;;;;-140.79;100.00;63287.88;5012111;28;20033;-77
2021/07/12 00:53:53;;;;;;;8.52;5.32;;;;;;;-140.79;100.00;63287.88;4977785;28;20025;-77
2021/07/12 00:56:19;;;;;;;8.88;5.82;;;;;;;-140.79;100.00;63287.88;4994340;28;20186;-77
2021/07/12 00:58:44;;;;;;;6.53;4.82;;;;;;;-140.79;100.00;63287.88;4977338;28;20026;-77
2021/07/12 01:01:10;;;;;;;8.93;4.88;;;;;;;-140.79;100.00;63287.88;4994168;28;20461;-77
2021/07/12 01:03:35;;;;;;;6.05;4.68;;;;;;;-140.79;100.00;63287.88;5011959;28;20050;-77
2021/07/12 01:06:01;;;;;;;5.50;4.75;;;;;;;-140.79;100.00;63287.88;5010983;28;20025;-77
2021/07/12 01:08:27;;;;;;;6.03;4.78;;;;;;;-140.79;100.00;63287.88;4993913;28;20104;-77
2021/07/12 01:11:34;;;;;;;7.65;5.20;;;;;;;-140.79;100.00;63287.88;4993448;28;20033;-77
2021/07/12 01:14:20;;;;;;;5.97;4.18;;;;;;;-140.79;100.00;63287.88;5009345;28;20073;-77
2021/07/12 01:17:21;;;;;;;7.13;4.53;;;;;;;-140.79;100.00;63287.88;5009604;28;20083;-77
2021/07/12 01:20:06;;;;;;;6.43;4.93;;;;;;;-140.79;100.00;63287.88;5009924;28;20030;-77
2021/07/12 01:22:42;;;;;;;8.43;5.38;;;;;;;-140.79;100.00;63287.88;4992913;28;20029;-77
2021/07/12 01:25:29;;;;;;;6.90;4.97;;;;;;;-140.79;100.00;63287.88;4992339;28;20053;-77
2021/07/12 01:28:26;;;;;;;7.88;5.07;;;;;;;-140.79;100.00;63287.88;5009535;28;20026;-77
2021/07/12 01:31:10;;;;;;;5.57;4.68;;;;;;;-140.79;100.00;63287.88;4994167;28;20029;-77
2021/07/12 01:33:36;;;;;;;6.35;4.63;;;;;;;-140.79;100.00;63287.88;4992085;28;20034;-77
2021/07/12 01:36:05;;;;;;;7.68;5.10;;;;;;;-140.79;100.00;63287.88;5009564;28;20496;-77
2021/07/12 01:38:41;;;;;;;5.68;4.70;;;;;;;-140.79;100.00;63287.88;5009496;28;20428;-77
2021/07/12 01:41:21;;;;;;;6.40;5.32;;;;;;;-140.79;100.00;63287.88;5009648;28;20025;-77
2021/07/12 01:43:54;;;;;;;7.60;5.00;;;;;;;-140.79;100.00;63287.88;5010352;28;20037;-77
2021/07/12 01:46:38;;;;;;;7.65;5.05;;;;;;;-140.79;100.00;63287.88;5004030;28;20038;-77
2021/07/12 01:49:12;;;;;;;5.78;5.00;;;;;;;-140.79;100.00;63287.88;4974707;28;20026;-77
2021/07/12 01:52:09;;;;;;;5.95;4.90;;;;;;;-140.79;100.00;63287.88;4991894;28;20293;-77
2021/07/12 01:54:39;;;;;;;6.10;4.70;;;;;;;-140.79;100.00;63287.88;4969088;28;20101;-77
2021/07/12 01:57:07;;;;;;;7.63;5.15;;;;;;;-140.79;100.00;63287.88;4973575;28;20042;-77
2021/07/12 01:59:58;;;;;;;8.63;4.63;;;;;;;-140.79;100.00;63287.88;4973027;28;20042;-77
2021/07/12 02:02:33;;;;;;;5.68;5.03;;;;;;;-140.79;100.00;63287.88;4973637;28;20436;-77
2021/07/12 02:05:06;;;;;;;6.22;4.93;;;;;;;-140.79;100.00;63287.88;4972106;28;20453;-77
2021/07/12 02:07:31;;;;;;;10.68;5.30;;;;;;;-140.79;100.00;63287.88;4971895;28;20132;-77
2021/07/12 02:09:57;;;;;;;6.68;4.85;;;;;;;-140.79;100.00;63287.88;4971700;28;20549;-77
2021/07/12 02:12:22;;;;;;;6.93;5.53;;;;;;;-140.79;100.00;63287.88;4971847;28;20026;-77
2021/07/12 02:14:48;;;;;;;6.53;5.25;;;;;;;-140.79;100.00;63287.88;4971959;28;20037;-77
2021/07/12 02:17:14;;;;;;;9.02;5.60;;;;;;;-140.79;100.00;63287.88;4971645;28;20085;-77
2021/07/12 02:19:40;;;;;;;6.55;5.30;;;;;;;-140.79;100.00;63287.88;4971680;28;20046;-77
2021/07/12 02:22:05;;;;;;;6.65;4.63;;;;;;;-140.79;100.00;63287.88;4971511;28;20026;-77
2021/07/12 02:24:31;;;;;;;7.20;5.18;;;;;;;-140.79;100.00;63287.88;4956625;28;20023;-77
2021/07/12 02:26:56;;;;;;;6.95;4.95;;;;;;;-140.79;100.00;63287.88;4967760;28;20062;-77
2021/07/12 02:29:22;;;;;;;6.85;5.28;;;;;;;-140.79;100.00;63287.88;4969280;28;20030;-77
2021/07/12 02:31:48;;;;;;;6.63;5.13;;;;;;;-140.79;100.00;63287.88;4968692;28;20030;-77
2021/07/12 02:34:13;;;;;;;8.43;6.22;;;;;;;-140.79;100.00;63287.88;4967903;28;20489;-77
2021/07/12 02:36:39;;;;;;;7.57;5.55;;;;;;;-140.79;100.00;63287.88;4968132;28;20023;-77
2021/07/12 02:39:04;;;;;;;9.27;5.53;;;;;;;-140.79;100.00;63287.88;4952533;28;20034;-77
2021/07/12 02:41:31;;;;;;;8.38;5.60;;;;;;;-140.79;100.00;63287.88;4952562;28;20018;-77
2021/07/12 02:43:57;;;;;;;9.45;5.90;;;;;;;-140.79;100.00;63287.88;4968123;28;20120;-77
2021/07/12 02:46:23;;;;;;;8.32;5.95;;;;;;;-140.79;100.00;63287.88;4952070;28;20030;-78
2021/07/12 02:48:48;;;;;;;7.57;5.38;;;;;;;-140.79;100.00;63287.88;4952004;28;20065;-77
2021/07/12 02:51:16;;;;;;;7.55;4.95;;;;;;;-140.79;100.00;63287.88;4952036;28;20043;-77
2021/07/12 02:53:53;;;;;;;6.50;5.25;;;;;;;-140.79;100.00;63287.88;4951976;28;20034;-77
2021/07/12 02:56:18;;;;;;;8.63;6.00;;;;;;;-140.79;100.00;63287.88;4968117;28;20097;-77
2021/07/12 02:58:44;;;;;;;9.45;5.65;;;;;;;-140.79;100.00;63287.88;4952182;28;20027;-77
2021/07/12 03:01:09;;;;;;;7.38;5.53;;;;;;;-140.79;100.00;63287.88;4968072;28;20026;-77
2021/07/12 03:03:35;;;;;;;7.80;5.45;;;;;;;-140.79;100.00;63287.88;4967861;28;20062;-76
2021/07/12 03:06:12;;;;;;;6.40;5.28;;;;;;;-140.79;100.00;63287.88;4984823;28;20031;-77
2021/07/12 03:08:46;;;;;;;7.70;5.80;;;;;;;-140.79;100.00;63287.88;4987069;28;20030;-76
2021/07/12 03:11:12;;;;;;;7.13;5.50;;;;;;;-140.79;100.00;63287.88;4988793;28;20394;-76
2021/07/12 03:14:00;;;;;;;7.22;5.32;;;;;;;-140.79;100.00;63287.88;4971254;28;20034;-76
2021/07/12 03:16:26;;;;;;;6.57;5.60;;;;;;;-140.79;100.00;63287.88;4971090;28;20041;-76
2021/07/12 03:18:54;;;;;;;7.40;5.22;;;;;;;-140.79;100.00;63287.88;4970728;28;20030;-76
2021/07/12 03:21:20;;;;;;;7.57;5.70;;;;;;;-140.79;100.00;63287.88;4970820;28;20550;-76
2021/07/12 03:23:45;;;;;;;6.00;5.40;;;;;;;-140.79;100.00;63287.88;4987168;28;20038;-76
2021/07/12 03:26:11;;;;;;;7.20;5.47;;;;;;;-140.79;100.00;63287.88;4970243;28;20481;-77
2021/07/12 03:28:37;;;;;;;7.43;5.90;;;;;;;-140.79;100.00;63287.88;4971089;28;20089;-77
2021/07/12 03:31:02;;;;;;;8.00;5.93;;;;;;;-140.79;100.00;63287.88;4971036;28;20036;-76
2021/07/12 03:33:29;;;;;;;7.60;5.07;;;;;;;-140.79;100.00;63287.88;4970843;28;20117;-76
2021/07/12 03:35:54;;;;;;;8.35;5.75;;;;;;;-140.79;100.00;63287.88;4986780;28;20420;-76
2021/07/12 03:38:20;;;;;;;7.18;5.50;;;;;;;-140.79;100.00;63287.88;4971140;28;20035;-76
2021/07/12 03:40:46;;;;;;;8.43;5.50;;;;;;;-140.79;100.00;63287.88;4992310;28;20390;-76
2021/07/12 03:43:12;;;;;;;8.20;5.40;;;;;;;-140.79;100.00;63287.88;4974518;28;20034;-76
2021/07/12 03:45:41;;;;;;;7.75;5.60;;;;;;;-140.79;100.00;63287.88;4992161;28;20824;-76
2021/07/12 03:48:07;;;;;;;10.50;5.95;;;;;;;-140.79;100.00;63287.88;4991041;28;20113;-77
2021/07/12 03:50:32;;;;;;;8.60;5.47;;;;;;;-140.79;100.00;63287.88;4992393;28;20552;-76
2021/07/12 03:53:01;;;;;;;7.03;5.38;;;;;;;-140.79;100.00;63287.88;4991412;28;20865;-78
2021/07/12 03:55:26;;;;;;;6.93;5.10;;;;;;;-140.79;100.00;63287.88;4991520;28;20034;-79
2021/07/12 03:57:52;;;;;;;6.88;5.30;;;;;;;-140.79;100.00;63287.88;4974710;28;20456;-76
2021/07/12 04:00:19;;;;;;;7.65;5.95;;;;;;;-140.79;100.00;63287.88;4992700;28;20084;-78
2021/07/12 04:02:45;;;;;;;6.95;5.03;;;;;;;-140.79;100.00;63287.88;4988088;28;20061;-79
2021/07/12 04:05:11;;;;;;;9.20;6.00;;;;;;;-140.79;100.00;63287.88;4973266;28;20034;-77
2021/07/12 04:07:36;;;;;;;8.40;5.65;;;;;;;-140.79;100.00;63287.88;4973254;28;20512;-78
2021/07/12 04:10:04;;;;;;;9.93;5.65;;;;;;;-140.79;100.00;63287.88;4987723;28;20031;-80
2021/07/12 04:12:31;;;;;;;6.57;5.30;;;;;;;-140.79;100.00;63287.88;4967954;28;20041;-77
2021/07/12 04:14:58;;;;;;;8.40;5.22;;;;;;;-140.79;100.00;63287.88;4961290;28;20581;-77
2021/07/12 04:17:23;;;;;;;8.30;5.53;;;;;;;-140.79;100.00;63287.88;4962028;28;20464;-76
2021/07/12 04:19:49;;;;;;;7.80;5.95;;;;;;;-140.79;100.00;63287.88;4959815;28;20090;-77
2021/07/12 04:22:14;;;;;;;7.82;6.05;;;;;;;-140.79;100.00;63287.88;4961711;28;20035;-77
2021/07/12 04:24:39;;;;;;;7.88;5.70;;;;;;;-140.79;100.00;63287.88;4961106;28;20034;-76
2021/07/12 04:27:05;;;;;;;8.63;6.30;;;;;;;-140.79;100.00;63287.88;4961826;28;20035;-76
2021/07/12 04:29:30;;;;;;;9.18;5.90;;;;;;;-140.79;100.00;63287.88;4973517;28;20547;-76
2021/07/12 04:31:56;;;;;;;7.90;6.55;;;;;;;-140.79;100.00;63287.88;4958725;28;20050;-76
2021/07/12 04:34:22;;;;;;;8.57;6.40;;;;;;;-140.79;100.00;63287.88;4969503;28;20031;-76
2021/07/12 04:36:48;;;;;;;11.57;6.55;;;;;;;-140.79;100.00;63287.88;4971535;28;20639;-77
2021/07/12 04:39:13;;;;;;;8.90;6.30;;;;;;;-140.79;100.00;63287.88;4972531;28;20031;-76
2021/07/12 04:41:39;;;;;;;8.90;6.13;;;;;;;-140.79;100.00;63287.88;4968838;28;20097;-76
2021/07/12 04:44:04;;;;;;;9.60;6.55;;;;;;;-140.79;100.00;63287.88;4971383;28;20027;-75
2021/07/12 04:46:30;;;;;;;8.50;6.00;;;;;;;-140.79;100.00;63287.88;4970408;28;20031;-78
2021/07/12 04:48:55;;;;;;;8.90;6.03;;;;;;;-140.79;100.00;63287.88;4970012;28;20038;-76
2021/07/12 04:51:21;;;;;;;9.00;6.28;;;;;;;-140.79;100.00;63287.88;4970775;28;20138;-80
2021/07/12 04:53:46;;;;;;;7.88;6.03;;;;;;;-140.79;100.00;63287.88;4965532;28;20027;-76
2021/07/12 04:56:12;;;;;;;10.32;6.63;;;;;;;-140.79;100.00;63287.88;4973310;28;20506;-79
2021/07/12 04:58:44;;;;;;;8.35;6.28;;;;;;;-140.79;100.00;63287.88;4970119;28;20105;-77
2021/07/12 05:01:09;;;;;;;10.30;6.38;;;;;;;-140.79;100.00;63287.88;4966342;28;20026;-74
2021/07/12 05:03:35;;;;;;;10.15;6.78;;;;;;;-140.79;100.00;63287.88;4965590;28;20105;-75
2021/07/12 05:06:00;;;;;;;8.60;6.05;;;;;;;-140.79;100.00;63287.88;4973248;28;20465;-78
2021/07/12 05:08:25;;;;;;;12.25;6.38;;;;;;;-140.79;100.00;63287.88;4970259;28;20409;-75
2021/07/12 05:10:51;;;;;;;10.75;6.60;;;;;;;-140.79;100.00;63287.88;4970965;28;20493;-74
2021/07/12 05:13:16;;;;;;;9.50;6.53;;;;;;;-140.79;100.00;63287.88;4969068;28;20030;-75
2021/07/12 05:15:42;;;;;;;10.57;6.72;;;;;;;-140.79;100.00;63287.88;4985662;28;20081;-75
2021/07/12 05:18:07;;;;;;;12.60;6.85;;;;;;;-140.79;100.00;63287.88;4968914;28;20026;-74
2021/07/12 05:20:33;;;;;;;9.10;6.40;;;;;;;-140.79;100.00;63287.88;4970436;28;20093;-76
2021/07/12 05:22:59;;;;;;;9.90;6.43;;;;;;;-140.79;100.00;63287.88;4967631;28;20031;-74
2021/07/12 05:25:26;;;;;;;9.65;6.43;;;;;;;-140.79;100.00;63287.88;4969495;28;20025;-75
2021/07/12 05:27:52;;;;;;;11.43;6.40;;;;;;;-140.79;100.00;63287.88;4967542;28;20030;-76
2021/07/12 05:30:17;;;;;;;12.10;6.75;;;;;;;-140.79;100.00;63287.88;4968673;28;20034;-77
2021/07/12 05:32:43;;;;;;;11.90;7.53;;;;;;;-140.79;100.00;63287.88;4963303;28;20034;-76
2021/07/12 05:35:09;;;;;;;11.60;7.18;;;;;;;-140.79;100.00;63287.88;4977953;28;20031;-77
2021/07/12 05:37:34;;;;;;;11.90;7.68;;;;;;;-140.79;100.00;63287.88;4964013;28;20683;-78
2021/07/12 05:40:00;;;;;;;9.73;7.40;;;;;;;-140.79;100.00;63287.88;4968166;28;20157;-77
2021/07/12 05:42:25;;;;;;;9.10;7.10;;;;;;;-140.79;100.00;63287.88;4965475;28;20405;-75
2021/07/12 05:44:51;;;;;;;8.77;7.22;;;;;;;-140.79;100.00;63287.88;4970525;28;20022;-76
2021/07/12 05:47:17;;;;;;;9.90;7.80;;;;;;;-140.79;100.00;63287.88;4968796;28;20094;-76
2021/07/12 05:49:42;;;;;;;15.63;7.75;;;;;;;-140.79;100.00;63287.88;4971903;28;20027;-74
2021/07/12 05:52:07;;;;;;;10.55;7.78;;;;;;;-140.79;100.00;63287.88;4965841;28;20118;-77
2021/07/12 05:54:33;;;;;;;17.88;10.90;;;;;;;-140.79;100.00;63287.88;4960512;28;20023;-76
2021/07/12 05:56:58;;;;;;;21.10;14.15;;;;;;;-140.79;100.00;63287.88;4966788;28;20019;-74
2021/07/12 05:59:24;;;;;;;14.30;8.73;;;;;;;-140.79;100.00;63287.88;4956075;28;20090;-75
2021/07/12 06:01:50;;;;;;;13.82;8.30;;;;;;;-140.79;100.00;63287.88;4966354;28;20034;-77
2021/07/12 06:04:15;;;;;;;10.77;7.60;;;;;;;-140.79;100.00;63287.88;4981236;28;20058;-76
2021/07/12 06:06:41;;;;;;;12.77;8.32;;;;;;;-140.79;100.00;63287.88;4988769;28;20018;-74
2021/07/12 06:09:06;;;;;;;11.68;8.05;;;;;;;-140.79;100.00;63287.88;4985678;28;20015;-77
2021/07/12 06:11:31;;;;;;;13.50;7.32;;;;;;;-140.79;100.00;63287.88;4988509;28;20025;-78
2021/07/12 06:13:57;;;;;;;13.55;8.50;;;;;;;-140.79;100.00;63287.88;4982872;28;20026;-77
2021/07/12 06:16:24;;;;;;;14.70;8.30;;;;;;;-140.79;100.00;63287.88;4981808;28;20026;-77
2021/07/12 06:18:50;;;;;;;12.52;7.85;;;;;;;-140.79;100.00;63287.88;4984965;28;20022;-77
2021/07/12 06:21:15;;;;;;;13.13;7.22;;;;;;;-140.79;100.00;63287.88;4989832;28;20472;-79
2021/07/12 06:23:41;;;;;;;13.35;7.55;;;;;;;-140.79;100.00;63287.88;4983828;28;20034;-78
2021/07/12 06:26:06;;;;;;;10.50;7.05;;;;;;;-140.79;100.00;63287.88;4990394;28;20091;-75
2021/07/12 06:28:32;;;;;;;9.10;6.80;;;;;;;-140.79;100.00;63287.88;4987809;28;20092;-76
2021/07/12 06:30:57;;;;;;;10.10;6.75;;;;;;;-140.79;100.00;63287.88;4986645;28;20046;-77
2021/07/12 06:33:26;;;;;;;13.15;7.22;;;;;;;-140.79;100.00;63287.88;4984711;28;20030;-75
2021/07/12 06:35:52;;;;;;;9.25;6.43;;;;;;;-140.79;100.00;63287.88;4988346;28;20034;-78
2021/07/12 06:38:18;;;;;;;9.30;6.60;;;;;;;-140.79;100.00;63287.88;4981975;28;20049;-75
2021/07/12 06:40:43;;;;;;;9.18;6.28;;;;;;;-140.79;100.00;63287.88;4976073;28;20034;-76
2021/07/12 06:43:09;;;;;;;8.25;5.93;;;;;;;-140.79;100.00;63287.88;4981079;28;20026;-76
2021/07/12 06:45:34;;;;;;;11.18;6.03;;;;;;;-140.79;100.00;63287.88;4976591;28;20026;-76
2021/07/12 06:47:59;;;;;;;8.95;6.47;;;;;;;-140.79;100.00;63287.88;4976034;28;20033;-76
2021/07/12 06:50:25;;;;;;;9.88;6.53;;;;;;;-140.79;100.00;63287.88;4981283;28;20037;-76
2021/07/12 06:52:50;;;;;;;9.90;6.85;;;;;;;-140.79;100.00;63287.88;4978129;28;20058;-76
2021/07/12 06:55:16;;;;;;;11.75;6.65;;;;;;;-140.79;100.00;63287.88;4974332;28;20031;-76
2021/07/12 06:57:42;;;;;;;11.02;5.97;;;;;;;-140.79;100.00;63287.88;4972749;28;20027;-77
2021/07/12 07:00:08;;;;;;;8.50;6.18;;;;;;;-140.79;100.00;63287.88;4973145;28;20142;-77
2021/07/12 07:02:35;;;;;;;8.45;5.95;;;;;;;-140.79;100.00;63287.88;4977885;28;20074;-77
2021/07/12 07:05:02;;;;;;;9.75;6.05;;;;;;;-140.79;100.00;63287.88;4969845;28;20108;-77
2021/07/12 07:07:27;;;;;;;9.18;5.60;;;;;;;-140.79;100.00;63287.88;4976527;28;20022;-77
2021/07/12 07:09:53;;;;;;;7.43;5.63;;;;;;;-140.79;100.00;63287.88;4973402;28;20033;-77
2021/07/12 07:12:18;;;;;;;8.07;5.30;;;;;;;-140.79;100.00;63287.88;4974348;28;20045;-77
2021/07/12 07:14:44;;;;;;;7.20;5.57;;;;;;;-140.79;100.00;63287.88;4971780;28;20026;-77
2021/07/12 07:17:12;;;;;;;7.40;5.38;;;;;;;-140.79;100.00;63287.88;4973743;28;20041;-77
2021/07/12 07:19:38;;;;;;;8.18;5.55;;;;;;;-140.79;100.00;63287.88;4973208;28;20050;-77
2021/07/12 07:22:03;;;;;;;7.85;5.68;;;;;;;-140.79;100.00;63287.88;4973550;28;20497;-78
2021/07/12 07:24:29;;;;;;;8.05;5.35;;;;;;;-140.79;100.00;63287.88;4979870;28;20027;-77
2021/07/12 07:26:54;;;;;;;7.68;5.50;;;;;;;-140.79;100.00;63287.88;4984989;28;20493;-77
2021/07/12 07:29:21;;;;;;;7.40;5.50;;;;;;;-140.79;100.00;63287.88;4972363;28;20035;-77
2021/07/12 07:31:47;;;;;;;5.78;5.18;;;;;;;-140.79;100.00;63287.88;4976248;28;20038;-78
2021/07/12 07:34:12;;;;;;;7.47;5.40;;;;;;;-140.79;100.00;63287.88;4981334;28;20459;-78
2021/07/12 07:36:39;;;;;;;6.13;5.13;;;;;;;-140.79;100.00;63287.88;4971476;28;20031;-78
2021/07/12 07:39:05;;;;;;;8.38;5.50;;;;;;;-140.79;100.00;63287.88;4970418;28;20493;-78
2021/07/12 07:41:30;;;;;;;7.75;4.95;;;;;;;-140.79;100.00;63287.88;4976351;28;20032;-77
2021/07/12 07:43:56;;;;;;;8.00;5.30;;;;;;;-140.79;100.00;63287.88;4974525;28;20029;-77
2021/07/12 07:46:21;;;;;;;6.97;5.40;;;;;;;-140.79;100.00;63287.88;4982037;28;20539;-78
2021/07/12 07:48:47;;;;;;;6.22;4.80;;;;;;;-140.79;100.00;63287.88;4978955;28;20015;-78
2021/07/12 07:51:12;;;;;;;6.53;4.85;;;;;;;-140.79;100.00;63287.88;4971545;28;20033;-78
2021/07/12 07:53:37;;;;;;;7.40;5.18;;;;;;;-140.79;100.00;63287.88;4982939;28;20037;-78
2021/07/12 07:56:03;;;;;;;5.72;4.70;;;;;;;-140.79;100.00;63287.88;4979348;28;20527;-77
2021/07/12 07:58:30;;;;;;;7.38;5.07;;;;;;;-140.79;100.00;63287.88;4976576;28;20094;-78
2021/07/12 08:00:55;;;;;;;5.72;4.90;;;;;;;-140.79;100.00;63287.88;4978548;28;20050;-78
2021/07/12 08:03:21;;;;;;;6.05;4.63;;;;;;;-140.79;100.00;63287.88;4983713;28;20054;-77
2021/07/12 08:05:46;;;;;;;5.85;4.80;;;;;;;-140.79;100.00;63287.88;4979493;28;20026;-78
2021/07/12 08:08:12;;;;;;;6.93;5.03;;;;;;;-140.79;100.00;63287.88;4969605;28;20026;-78
2021/07/12 08:10:37;;;;;;;7.25;4.75;;;;;;;-140.79;100.00;63287.88;4971945;28;20034;-78
2021/07/12 08:13:07;;;;;;;6.03;4.50;;;;;;;-140.79;100.00;63287.88;4976784;28;20026;-79
2021/07/12 08:15:32;;;;;;;5.82;4.70;;;;;;;-140.79;100.00;63287.88;4974928;28;20102;-79
2021/07/12 08:17:58;;;;;;;6.40;4.68;;;;;;;-140.79;100.00;63287.88;4973564;28;20037;-78
2021/07/12 08:20:23;;;;;;;6.03;4.95;;;;;;;-140.79;100.00;63287.88;4976090;28;20029;-77
2021/07/12 08:22:52;;;;;;;4.80;4.20;;;;;;;-140.79;100.00;63287.88;4980447;28;20033;-78
2021/07/12 08:25:17;;;;;;;6.22;4.47;;;;;;;-140.79;100.00;63287.88;4976607;28;20125;-78
2021/07/12 08:27:43;;;;;;;6.75;4.80;;;;;;;-140.79;100.00;63287.88;4975922;28;20041;-76
2021/07/12 08:30:09;;;;;;;5.60;4.32;;;;;;;-140.79;100.00;63287.88;4975789;28;20034;-76
2021/07/12 08:32:35;;;;;;;6.97;4.68;;;;;;;-140.79;100.00;63287.88;4979572;28;20499;-77
2021/07/12 08:35:00;;;;;;;6.15;4.28;;;;;;;-140.79;100.00;63287.88;4976047;28;20019;-77
2021/07/12 08:37:26;;;;;;;5.65;4.53;;;;;;;-140.79;100.00;63287.88;4978949;28;20015;-77
2021/07/12 08:39:51;;;;;;;5.47;4.53;;;;;;;-140.79;100.00;63287.88;4979463;28;20026;-77
2021/07/12 08:42:17;;;;;;;5.90;4.43;;;;;;;-140.79;100.00;63287.88;4985695;28;20034;-77
2021/07/12 08:44:42;;;;;;;5.72;4.43;;;;;;;-140.79;100.00;63287.88;4976118;28;20030;-77
2021/07/12 08:47:08;;;;;;;5.88;3.92;;;;;;;-140.79;100.00;63287.88;4980417;28;20030;-77
2021/07/12 08:49:34;;;;;;;5.50;4.20;;;;;;;-140.79;100.00;63287.88;4979744;28;20030;-76
2021/07/12 08:52:03;;;;;;;4.82;3.75;;;;;;;-140.79;100.00;63287.88;4981605;28;20053;-77
2021/07/12 08:54:29;;;;;;;4.95;4.05;;;;;;;-140.79;100.00;63287.88;4985719;28;20519;-77
2021/07/12 08:56:55;;;;;;;4.88;4.05;;;;;;;-140.79;100.00;63287.88;4986672;28;20041;-78
2021/07/12 08:59:32;;;;;;;5.55;4.25;;;;;;;-140.79;100.00;63287.88;4989622;28;20523;-77
2021/07/12 09:02:23;;;;;;;5.10;4.25;;;;;;;-140.79;100.00;63287.88;4984994;28;20516;-75
2021/07/12 09:04:53;;;;;;;6.28;4.10;;;;;;;-140.79;100.00;63287.88;4990331;28;20788;-77
2021/07/12 09:07:18;;;;;;;;;;;;;;;-140.79;100.00;63287.88;4990715;28;20034;-76
2021/07/12 09:09:56;;;;;;;5.78;4.25;;;;;;;-140.79;100.00;63287.88;4992137;28;20422;-76
2021/07/12 09:12:22;;;;;;;7.28;4.45;;;;;;;-140.79;100.00;63287.88;4974892;28;20030;-75
2021/07/12 09:15:09;;;;;;;5.18;4.28;;;;;;;-140.79;100.00;63287.88;4991784;28;20045;-76
2021/07/12 09:17:36;;;;;;;4.85;3.55;;;;;;;-140.79;100.00;63287.88;4985831;28;20037;-76
2021/07/12 09:20:04;;;;;;;6.05;3.92;;;;;;;-140.79;100.00;63287.88;4991756;28;20030;-76
2021/07/12 09:22:40;;;;;;;4.90;3.95;;;;;;;-140.79;100.00;63287.88;4985782;28;20103;-76
2021/07/12 09:25:10;;;;;;;7.10;3.70;;;;;;;-140.79;100.00;63287.88;4992241;28;20578;-76
2021/07/12 09:27:37;;;;;;;5.32;3.72;;;;;;;-140.79;100.00;63287.88;4986153;28;20106;-76
2021/07/12 09:30:06;;;;;;;6.70;4.40;;;;;;;-140.79;100.00;63287.88;4992298;28;20041;-75
2021/07/12 09:32:33;;;;;;;4.90;4.20;;;;;;;-140.79;100.00;63287.88;4983690;28;20068;-76
2021/07/12 09:35:10;;;;;;;5.93;3.90;;;;;;;-140.79;100.00;63287.88;4991741;28;20041;-76
2021/07/12 09:37:40;;;;;;;5.65;3.58;;;;;;;-140.79;100.00;63287.88;4985962;28;20026;-80
2021/07/12 09:40:12;;;;;;;4.20;3.80;;;;;;;-140.79;100.00;63287.88;4975204;28;20026;-76
2021/07/12 09:42:39;;;;;;;5.53;3.67;;;;;;;-140.79;100.00;63287.88;4984592;28;20463;-75
2021/07/12 09:45:06;;;;;;;6.47;4.10;;;;;;;-140.79;100.00;63287.88;4990509;28;20077;-75
2021/07/12 09:47:36;;;;;;;5.85;4.15;;;;;;;-140.79;100.00;63287.88;4983750;28;20077;-81
2021/07/12 09:50:09;;;;;;;6.32;4.38;;;;;;;-140.79;100.00;63287.88;4988440;28;20487;-75
2021/07/12 09:52:40;;;;;;;4.38;3.33;;;;;;;-140.79;100.00;63287.88;4984117;28;20038;-79
2021/07/12 09:55:06;;;;;;;5.95;3.95;;;;;;;-140.79;100.00;63287.88;4988971;28;20072;-76
2021/07/12 09:57:33;;;;;;;4.90;4.25;;;;;;;-140.79;100.00;63287.88;4984899;28;20101;-77
2021/07/12 10:00:06;;;;;;;5.20;3.80;;;;;;;-140.79;100.00;63287.88;4988799;28;20023;-75
2021/07/12 10:02:36;;;;;;;5.22;3.80;;;;;;;-140.79;100.00;63287.88;4986606;28;20054;-75
2021/07/12 10:05:12;;;;;;;5.50;4.30;;;;;;;-140.79;100.00;63287.88;4973169;28;20026;-74
2021/07/12 10:07:37;;;;;;;4.38;3.95;;;;;;;-140.79;100.00;63287.88;4971354;28;20034;-75
2021/07/12 10:10:13;;;;;;;4.35;3.75;;;;;;;-140.79;100.00;63287.88;4989435;28;20516;-75
2021/07/12 10:12:38;;;;;;;5.43;3.80;;;;;;;-140.79;100.00;63287.88;4983298;28;20045;-76
2021/07/12 10:15:04;;;;;;;6.03;3.70;;;;;;;-140.79;100.00;63287.88;4975456;28;20026;-76
2021/07/12 10:17:30;;;;;;;4.40;3.60;;;;;;;-140.79;100.00;63287.88;4988907;28;20030;-76
2021/07/12 10:19:55;;;;;;;4.72;3.63;;;;;;;-140.79;100.00;63287.88;4973852;28;20030;-76
2021/07/12 10:22:22;;;;;;;6.47;3.72;;;;;;;-140.79;100.00;63287.88;4971069;28;20034;-81
2021/07/12 10:24:47;;;;;;;5.68;3.90;;;;;;;-140.79;100.00;63287.88;4985917;28;20484;-76
2021/07/12 10:27:28;;;;;;;6.15;3.85;;;;;;;-140.79;100.00;63287.88;4987068;28;20065;-76
2021/07/12 10:29:55;;;;;;;8.60;4.45;;;;;;;-140.79;100.00;63287.88;5008999;28;20026;-75
2021/07/12 10:32:24;;;;;;;6.07;3.90;;;;;;;-140.79;100.00;63287.88;5001928;28;20038;-76
2021/07/12 10:34:52;;;;;;;7.68;4.13;;;;;;;-140.79;100.00;63287.88;5008008;28;20089;-76
2021/07/12 10:37:33;;;;;;;6.97;3.80;;;;;;;-140.79;100.00;63287.88;4984430;28;20026;-76
2021/07/12 10:40:00;;;;;;;6.70;3.88;;;;;;;-140.79;100.00;63287.88;4988832;28;20030;-76
2021/07/12 10:42:40;;;;;;;5.88;3.75;;;;;;;-140.79;100.00;63287.88;4982846;28;20102;-76
2021/07/12 10:45:28;;;;;;;6.20;3.70;;;;;;;-140.79;100.00;63287.88;4982570;28;20519;-76
2021/07/12 10:48:04;;;;;;;6.45;3.95;;;;;;;-140.79;100.00;63287.88;4984067;28;20154;-77
2021/07/12 10:50:38;;;;;;;5.45;4.30;;;;;;;-140.79;100.00;63287.88;4986601;28;20038;-76
2021/07/12 10:53:24;;;;;;;6.63;3.90;;;;;;;-140.79;100.00;63287.88;4985725;28;20424;-76
2021/07/12 10:55:58;;;;;;;5.72;3.60;;;;;;;-140.79;100.00;63287.88;4986734;28;20386;-76
2021/07/12 10:58:25;;;;;;;4.65;3.55;;;;;;;-140.79;100.00;63287.88;4988526;28;20068;-76
2021/07/12 11:00:51;;;;;;;6.07;3.40;;;;;;;-140.79;100.00;63287.88;4986522;28;20038;-76
2021/07/12 11:03:42;;;;;;;5.55;3.65;;;;;;;-140.79;100.00;63287.88;4986984;28;20090;-77
2021/07/12 11:06:09;;;;;;;4.40;3.53;;;;;;;-140.79;100.00;63287.88;4985730;28;20030;-76
2021/07/12 11:08:49;;;;;;;5.25;3.67;;;;;;;-140.79;100.00;63287.88;4980356;28;20046;-76
2021/07/12 11:11:20;;;;;;;6.07;3.58;;;;;;;-140.79;100.00;63287.88;4966703;28;20034;-76
2021/07/12 11:13:52;;;;;;;4.88;3.50;;;;;;;-140.79;100.00;63287.88;4988516;28;20026;-76
2021/07/12 11:16:22;;;;;;;4.18;3.50;;;;;;;-140.79;100.00;63287.88;4968642;28;20045;-77